Airfield :







YOU CAN JOIN US ON...

 
LOGIN :

Register | Disclaimer

   EN    FR    IT 

 









Legend :    VFR   Marginal VFR   IFR   Intensive IFR   Very Intensive IFR
Visi :
Ceiling :
>= 8 km
>= 3000ft
5 to 8 km
1000 to 3000 ft
1500m to 5 km
500 to 1000 ft
800 to 1500m
200 to 500 ft
< 800m
< 200 ft
Symbols :   Thunderstorms  Fog  Heavy snow  Heavy precipitations  Wind > 20 kt






- Airport Elevation : 148 ft


KLWM - Lawrence Municipal

CURRENT METAR :
  • 192054Z 29015G26KT 10SM CLR 03/M13 A3015 RMK AO2 PK WND 30026/2049 SLP211 T00281133 53022

EXPIRED METARs :
  • 191954Z 29014G21KT 10SM CLR 03/M11 A3012 RMK AO2 PK WND 31026/1925 SLP202 T00331106
  • 191854Z 32015G25KT 10SM SCT060 04/M08 A3010 RMK AO2 PK WND 26027/1801 SLP193 T00441083

TAF N/A



MET'MAP, your aeronautical weather chart ! - Copyright ORBIFLY December 2007 - Disclaimer

ORBIFLY MET'MAP TEAM :

Programming & Development : Alexandra Zaïnal
Concept & original design : Baudouin d'Aumeries
Assistance for programming : Marc-Olivier Méhu
Technical & hardware support : Manuel Goepfert

Contact : metmap@orbifly.com




SOURCES & CREDITS :

   NOAA